Time;durP1;ratioP1;P1;durP2;ratioP2;P2;SDS_P1;SDS_P2;PMS_P1;PMS_P2;Temp;Humidity;BMP_temperature;BMP_pressure;BME280_temperature;BME280_humidity;BME280_pressure;Samples;Min_cycle;Max_cycle;Signal;HPM_P1;HPM_P2
2022/10/20 04:02:41;;;;;;;1.48;1.48;;;5.90;99.90;;;;;;6240316;23;20200;-69
2022/10/20 04:05:09;;;;;;;2.15;2.00;;;5.90;99.90;;;;;;6241740;23;20170;-70
2022/10/20 04:07:35;;;;;;;1.00;1.00;;;5.90;99.90;;;;;;6242011;23;20259;-70
2022/10/20 04:10:02;;;;;;;1.92;1.45;;;5.90;99.90;;;;;;6240977;23;20292;-70
2022/10/20 04:12:30;;;;;;;1.92;1.85;;;5.80;99.90;;;;;;6238896;23;20198;-70
2022/10/20 04:14:56;;;;;;;2.50;2.08;;;5.80;99.90;;;;;;6241314;23;20291;-70
2022/10/20 04:17:23;;;;;;;1.42;1.35;;;5.80;99.90;;;;;;6241914;23;20201;-70
2022/10/20 04:19:51;;;;;;;2.10;1.90;;;5.70;99.90;;;;;;6244591;23;20188;-69
2022/10/20 04:22:18;;;;;;;1.30;1.30;;;5.70;99.90;;;;;;6244332;23;20217;-70
2022/10/20 04:24:45;;;;;;;6.38;3.80;;;5.70;99.90;;;;;;6246873;23;20488;-70
2022/10/20 04:27:11;;;;;;;4.60;4.20;;;5.70;99.90;;;;;;6241255;23;20184;-72
2022/10/20 04:29:38;;;;;;;6.75;4.03;;;5.60;99.90;;;;;;6214413;23;20174;-69
2022/10/20 04:32:05;;;;;;;3.28;3.08;;;5.60;99.90;;;;;;6240861;23;20515;-68
2022/10/20 04:34:31;;;;;;;5.30;4.78;;;5.60;99.90;;;;;;6240743;23;20667;-69
2022/10/20 04:36:59;;;;;;;5.50;3.03;;;5.60;99.90;;;;;;6241390;23;20642;-69
2022/10/20 04:39:26;;;;;;;3.53;3.33;;;5.60;99.90;;;;;;6242378;23;20177;-70
2022/10/20 04:41:53;;;;;;;2.45;2.25;;;5.60;99.90;;;;;;6240926;23;20209;-69
2022/10/20 04:44:20;;;;;;;2.05;1.95;;;5.60;99.90;;;;;;6242031;23;20575;-69
2022/10/20 04:46:46;;;;;;;2.60;2.03;;;5.60;99.90;;;;;;6241538;23;20177;-69
2022/10/20 04:49:13;;;;;;;1.45;1.45;;;5.60;99.90;;;;;;6250215;23;20181;-70
2022/10/20 04:51:40;;;;;;;2.25;2.15;;;5.50;99.90;;;;;;6258666;23;20202;-71
2022/10/20 04:54:08;;;;;;;1.98;1.98;;;5.50;99.90;;;;;;6259192;23;20181;-71
2022/10/20 04:56:35;;;;;;;1.95;1.63;;;5.50;99.90;;;;;;6258543;23;20712;-71
2022/10/20 04:59:02;;;;;;;1.58;1.48;;;5.50;99.90;;;;;;6259104;23;20185;-70
2022/10/20 05:01:30;;;;;;;1.75;1.65;;;5.50;99.90;;;;;;6259004;23;20214;-71
2022/10/20 05:03:57;;;;;;;7.78;1.70;;;5.50;99.90;;;;;;6258123;23;20257;-71
2022/10/20 05:06:26;;;;;;;2.88;2.35;;;5.50;99.90;;;;;;6253975;23;20173;-70
2022/10/20 05:08:55;;;;;;;2.88;1.67;;;5.40;99.90;;;;;;6243310;23;20188;-71
2022/10/20 05:11:25;;;;;;;0.88;0.88;;;5.40;99.90;;;;;;6242945;23;20321;-70
2022/10/20 05:13:52;;;;;;;1.45;1.35;;;5.40;99.90;;;;;;6242804;23;20189;-71
2022/10/20 05:16:19;;;;;;;1.55;1.55;;;5.30;99.90;;;;;;6242005;23;20209;-69
2022/10/20 05:18:47;;;;;;;2.08;1.88;;;5.30;99.90;;;;;;6241535;23;20181;-69
2022/10/20 05:21:15;;;;;;;2.88;2.33;;;5.30;99.90;;;;;;6240896;23;20741;-71
2022/10/20 05:23:43;;;;;;;1.40;1.40;;;5.30;99.90;;;;;;6240976;23;20185;-70
2022/10/20 05:26:12;;;;;;;1.92;1.83;;;5.30;99.90;;;;;;6241472;23;20177;-70
2022/10/20 05:28:42;;;;;;;4.13;3.38;;;5.20;99.90;;;;;;6241042;23;20201;-69
2022/10/20 05:31:09;;;;;;;4.45;2.78;;;5.20;99.90;;;;;;6240637;23;20201;-70
2022/10/20 05:33:36;;;;;;;4.18;3.15;;;5.20;99.90;;;;;;6241535;23;20229;-70
2022/10/20 05:36:08;;;;;;;4.43;3.90;;;5.20;99.90;;;;;;6241285;23;20197;-71
2022/10/20 05:38:35;;;;;;;7.15;6.07;;;5.30;99.90;;;;;;6251406;23;20216;-70
2022/10/20 05:41:06;;;;;;;8.38;4.38;;;5.30;99.90;;;;;;6238898;23;20338;-71
2022/10/20 05:43:33;;;;;;;8.85;5.80;;;5.30;99.90;;;;;;6240908;23;20238;-69
2022/10/20 05:46:01;;;;;;;6.43;4.95;;;5.30;99.90;;;;;;6241944;23;20173;-70
2022/10/20 05:48:27;;;;;;;4.72;3.53;;;5.30;99.90;;;;;;6241038;23;20177;-70
2022/10/20 05:50:54;;;;;;;5.28;4.50;;;5.40;99.90;;;;;;6241806;23;20224;-71
2022/10/20 05:53:21;;;;;;;7.35;4.15;;;5.40;99.90;;;;;;6240758;23;20268;-70
2022/10/20 05:55:47;;;;;;;4.63;4.22;;;5.50;99.90;;;;;;6241211;23;20206;-71
2022/10/20 05:58:14;;;;;;;5.25;4.32;;;5.50;99.90;;;;;;6241322;23;20224;-73
2022/10/20 06:00:50;;;;;;;7.05;3.33;;;5.50;99.90;;;;;;6240856;23;20213;-69
2022/10/20 06:03:18;;;;;;;2.70;2.60;;;5.50;99.90;;;;;;6242498;23;20604;-70
2022/10/20 06:05:45;;;;;;;4.10;3.75;;;5.60;99.90;;;;;;6243527;23;20258;-69
2022/10/20 06:08:12;;;;;;;3.53;3.33;;;5.60;99.90;;;;;;6242660;23;20492;-70
2022/10/20 06:10:39;;;;;;;4.85;2.90;;;5.70;99.90;;;;;;6241561;23;20208;-70
2022/10/20 06:13:05;;;;;;;6.60;4.10;;;5.70;99.90;;;;;;6243651;23;20177;-69
2022/10/20 06:15:32;;;;;;;4.00;3.75;;;5.70;99.90;;;;;;6243440;23;20204;-70
2022/10/20 06:17:59;;;;;;;4.20;3.85;;;5.80;99.90;;;;;;6244534;23;20201;-70
2022/10/20 06:20:27;;;;;;;5.10;3.60;;;5.80;99.90;;;;;;6242764;23;20279;-71
2022/10/20 06:22:54;;;;;;;4.60;4.40;;;5.80;99.90;;;;;;6242272;23;20178;-69
2022/10/20 06:25:20;;;;;;;9.88;3.72;;;5.90;99.90;;;;;;6243116;23;20182;-70
2022/10/20 06:27:47;;;;;;;5.43;3.58;;;5.90;99.90;;;;;;6242997;23;20516;-71
2022/10/20 06:30:14;;;;;;;3.15;2.30;;;5.90;99.90;;;;;;6242231;23;20186;-69
2022/10/20 06:32:40;;;;;;;4.20;3.90;;;5.90;99.90;;;;;;6241148;23;20181;-70
2022/10/20 06:35:07;;;;;;;4.80;4.28;;;6.00;99.90;;;;;;6243615;23;20542;-72
2022/10/20 06:37:35;;;;;;;3.75;3.50;;;6.10;99.90;;;;;;6243794;23;20182;-70
2022/10/20 06:40:02;;;;;;;3.47;3.00;;;6.10;99.90;;;;;;6243293;23;20213;-69
2022/10/20 06:42:29;;;;;;;6.95;3.45;;;6.20;99.90;;;;;;6244352;23;20207;-71
2022/10/20 06:44:57;;;;;;;4.90;4.50;;;6.30;99.90;;;;;;6243821;23;20216;-71
2022/10/20 06:47:24;;;;;;;6.10;4.43;;;6.30;99.90;;;;;;6253553;23;20790;-71
2022/10/20 06:49:50;;;;;;;4.80;3.58;;;6.40;99.90;;;;;;6243089;23;20498;-71
2022/10/20 06:52:17;;;;;;;3.10;2.85;;;6.50;99.90;;;;;;6243209;23;20198;-71
2022/10/20 06:54:45;;;;;;;2.80;2.70;;;6.50;99.90;;;;;;6244102;23;20264;-71
2022/10/20 06:57:12;;;;;;;2.03;1.88;;;6.60;99.90;;;;;;6246163;23;20253;-70
2022/10/20 06:59:38;;;;;;;3.55;3.45;;;6.80;99.90;;;;;;6245653;23;20186;-69
2022/10/20 07:02:05;;;;;;;3.97;3.25;;;6.90;99.90;;;;;;6245689;23;20229;-70
2022/10/20 07:04:32;;;;;;;2.53;2.42;;;7.20;99.90;;;;;;6248073;23;20186;-72
2022/10/20 07:06:58;;;;;;;1.05;1.05;;;7.30;99.90;;;;;;6247220;23;20275;-70
2022/10/20 07:09:25;;;;;;;2.15;2.05;;;7.30;99.90;;;;;;6247034;23;20186;-70
2022/10/20 07:11:53;;;;;;;1.92;1.77;;;7.30;99.90;;;;;;6247254;23;20199;-70
2022/10/20 07:14:20;;;;;;;1.45;1.13;;;7.20;99.90;;;;;;6247310;23;20246;-72
2022/10/20 07:16:47;;;;;;;2.55;2.40;;;7.30;99.90;;;;;;6249054;23;20200;-71
2022/10/20 07:19:14;;;;;;;2.42;1.95;;;7.30;99.90;;;;;;6248794;23;20182;-71
2022/10/20 07:21:40;;;;;;;3.10;2.80;;;7.30;99.90;;;;;;6246835;23;20210;-71
2022/10/20 07:24:08;;;;;;;0.65;0.65;;;7.40;99.90;;;;;;6243375;23;20201;-70
2022/10/20 07:26:36;;;;;;;1.73;1.65;;;7.50;99.90;;;;;;6242851;23;20194;-69
2022/10/20 07:29:05;;;;;;;2.78;1.52;;;7.50;99.90;;;;;;6243398;23;20184;-70
2022/10/20 07:31:35;;;;;;;1.35;1.30;;;7.60;99.90;;;;;;6242272;23;20265;-70
2022/10/20 07:34:02;;;;;;;1.63;1.52;;;7.60;99.90;;;;;;6242314;23;20184;-70
2022/10/20 07:36:30;;;;;;;3.03;2.28;;;7.70;99.90;;;;;;6242934;23;20213;-71
2022/10/20 07:38:59;;;;;;;3.35;3.13;;;7.80;99.90;;;;;;6242733;23;20198;-71
2022/10/20 07:41:27;;;;;;;3.00;2.90;;;7.80;99.90;;;;;;6241683;23;20218;-70
2022/10/20 07:43:54;;;;;;;1.30;1.30;;;7.90;99.90;;;;;;6241755;23;20582;-70
2022/10/20 07:46:23;;;;;;;4.88;2.65;;;8.00;99.90;;;;;;6241482;23;20163;-70
2022/10/20 07:48:50;;;;;;;1.45;1.35;;;8.00;99.90;;;;;;6242609;23;20183;-71
2022/10/20 07:51:25;;;;;;;3.20;2.20;;;8.10;99.90;;;;;;6242664;23;20207;-70
2022/10/20 07:53:52;;;;;;;1.67;1.45;;;8.20;99.90;;;;;;6242378;23;20170;-74
2022/10/20 07:56:20;;;;;;;1.17;1.17;;;8.30;99.90;;;;;;6243563;23;20669;-73
2022/10/20 07:58:46;;;;;;;1.60;1.50;;;8.40;99.90;;;;;;6242171;23;20558;-70
2022/10/20 08:01:13;;;;;;;1.60;1.60;;;8.50;99.90;;;;;;6240296;23;20231;-73
2022/10/20 08:03:41;;;;;;;2.22;1.98;;;8.60;99.90;;;;;;6241835;23;20179;-74
2022/10/20 08:06:08;;;;;;;3.42;1.92;;;8.70;99.90;;;;;;6242185;23;20225;-69
2022/10/20 08:08:35;;;;;;;0.82;0.82;;;8.80;99.90;;;;;;6240841;23;20198;-70
2022/10/20 08:11:01;;;;;;;1.23;1.23;;;8.90;99.90;;;;;;6241056;23;20209;-70
2022/10/20 08:13:29;;;;;;;2.67;1.05;;;9.00;99.90;;;;;;6242125;23;20199;-70
2022/10/20 08:15:56;;;;;;;0.80;0.80;;;9.10;99.90;;;;;;6241407;23;20206;-70
2022/10/20 08:18:23;;;;;;;0.88;0.88;;;9.20;99.90;;;;;;6242292;23;20205;-69
2022/10/20 08:20:51;;;;;;;5.55;1.80;;;9.20;99.90;;;;;;6241516;23;20211;-71
2022/10/20 08:23:18;;;;;;;1.75;1.65;;;9.30;99.90;;;;;;6240891;23;20502;-71
2022/10/20 08:25:45;;;;;;;0.65;0.65;;;9.40;99.90;;;;;;6241610;23;20183;-69
2022/10/20 08:28:11;;;;;;;1.67;0.63;;;9.50;99.90;;;;;;6242491;23;20187;-70
2022/10/20 08:30:38;;;;;;;1.30;1.20;;;9.50;99.90;;;;;;6241592;23;20206;-70
2022/10/20 08:33:05;;;;;;;0.90;0.90;;;9.60;99.90;;;;;;6241848;23;20178;-70
2022/10/20 08:35:32;;;;;;;1.15;1.15;;;9.70;99.90;;;;;;6240731;23;20190;-71
2022/10/20 08:38:00;;;;;;;1.20;1.20;;;9.70;99.90;;;;;;6239576;23;20192;-71
2022/10/20 08:40:29;;;;;;;1.75;1.63;;;9.80;99.90;;;;;;6240849;23;20184;-72
2022/10/20 08:42:56;;;;;;;0.60;0.60;;;9.90;99.90;;;;;;6240580;23;20282;-71
2022/10/20 08:45:25;;;;;;;1.15;1.15;;;9.90;99.90;;;;;;6242532;23;20181;-69
2022/10/20 08:47:54;;;;;;;1.85;1.10;;;10.00;99.90;;;;;;6243159;23;20210;-69
2022/10/20 08:50:26;;;;;;;0.55;0.55;;;10.10;99.90;;;;;;6240109;23;20187;-69
2022/10/20 08:52:55;;;;;;;1.38;1.33;;;10.20;99.90;;;;;;6240566;23;20271;-71
2022/10/20 08:55:27;;;;;;;0.68;0.68;;;10.20;99.90;;;;;;6240719;23;20189;-70
2022/10/20 08:57:59;;;;;;;0.85;0.85;;;10.30;99.90;;;;;;6241867;23;20183;-70
2022/10/20 09:00:26;;;;;;;1.40;1.30;;;10.40;99.90;;;;;;6242472;23;20175;-71
2022/10/20 09:02:54;;;;;;;1.13;1.13;;;10.50;99.90;;;;;;6241006;23;20178;-70
2022/10/20 09:05:25;;;;;;;1.10;1.10;;;10.50;99.90;;;;;;6242114;23;20178;-70
2022/10/20 09:07:52;;;;;;;9.45;1.77;;;10.70;99.90;;;;;;6242140;23;20178;-70
2022/10/20 09:10:30;;;;;;;2.67;1.10;;;10.70;99.90;;;;;;6241354;23;20191;-70
2022/10/20 09:12:59;;;;;;;2.33;1.63;;;10.70;99.90;;;;;;6241727;23;20171;-72
2022/10/20 09:15:26;;;;;;;0.55;0.55;;;10.80;99.90;;;;;;6251532;23;20178;-71
2022/10/20 09:17:58;;;;;;;1.05;1.05;;;10.80;99.90;;;;;;6242187;23;20525;-70
2022/10/20 09:20:30;;;;;;;0.47;0.47;;;10.80;99.90;;;;;;6241853;23;20496;-70
2022/10/20 09:22:57;;;;;;;1.83;1.20;;;10.80;99.90;;;;;;6240400;23;20179;-70
2022/10/20 09:25:26;;;;;;;1.15;1.15;;;10.90;99.90;;;;;;6240987;23;20186;-71
2022/10/20 09:27:54;;;;;;;1.02;1.02;;;10.90;99.90;;;;;;6242248;23;20187;-70
2022/10/20 09:30:24;;;;;;;0.63;0.63;;;10.90;99.90;;;;;;6240727;23;20267;-70
2022/10/20 09:32:52;;;;;;;1.00;1.00;;;11.00;99.90;;;;;;6240465;23;20185;-71
2022/10/20 09:35:23;;;;;;;4.72;1.60;;;11.00;99.90;;;;;;6241404;23;20183;-70
2022/10/20 09:38:15;;;;;;;1.13;0.68;;;11.10;99.90;;;;;;6243231;23;20277;-71
2022/10/20 09:40:46;;;;;;;3.78;1.48;;;11.20;99.90;;;;;;6242923;23;20226;-70
2022/10/20 09:43:18;;;;;;;1.05;1.05;;;11.30;99.90;;;;;;6243644;23;20176;-71
2022/10/20 09:45:52;;;;;;;0.90;0.90;;;11.40;99.90;;;;;;6243950;23;20167;-72
2022/10/20 09:48:23;;;;;;;3.30;0.85;;;11.40;99.90;;;;;;6243862;23;20201;-70
2022/10/20 09:50:53;;;;;;;2.30;1.10;;;11.30;99.90;;;;;;6242586;23;20205;-70
2022/10/20 09:53:24;;;;;;;1.55;1.52;;;11.40;99.90;;;;;;6243204;23;20219;-71
2022/10/20 09:55:52;;;;;;;0.90;0.90;;;11.40;99.90;;;;;;6243759;23;20173;-70
2022/10/20 09:58:24;;;;;;;2.72;2.47;;;11.50;99.90;;;;;;6242638;23;20202;-70
2022/10/20 10:01:00;;;;;;;1.42;1.42;;;11.60;99.90;;;;;;6243464;23;20227;-69
2022/10/20 10:03:27;;;;;;;1.75;1.10;;;11.70;99.90;;;;;;6243179;23;20186;-70
2022/10/20 10:05:55;;;;;;;1.17;0.90;;;11.60;99.90;;;;;;6242854;23;20192;-69
2022/10/20 10:08:24;;;;;;;1.98;0.40;;;11.60;99.90;;;;;;6242591;23;20158;-70
2022/10/20 10:11:04;;;;;;;1.65;1.55;;;11.60;99.90;;;;;;6242988;23;20200;-70
2022/10/20 10:13:38;;;;;;;0.68;0.68;;;11.70;99.90;;;;;;6242853;23;20170;-71
2022/10/20 10:16:07;;;;;;;2.90;1.10;;;11.70;99.90;;;;;;6242180;23;20167;-71
2022/10/20 10:18:35;;;;;;;1.38;1.38;;;11.80;99.90;;;;;;6242428;23;20215;-72
2022/10/20 10:21:06;;;;;;;1.17;1.17;;;11.80;99.90;;;;;;6243675;23;20199;-70
2022/10/20 10:23:35;;;;;;;1.52;1.52;;;11.70;99.90;;;;;;6243250;23;20501;-71
2022/10/20 10:26:24;;;;;;;1.92;1.83;;;11.80;99.90;;;;;;6243567;23;20185;-69
2022/10/20 10:28:58;;;;;;;0.77;0.77;;;11.80;99.90;;;;;;6245442;23;20182;-70
2022/10/20 10:31:25;;;;;;;5.97;1.80;;;11.90;99.90;;;;;;6245403;23;20696;-71
2022/10/20 10:33:56;;;;;;;1.20;1.05;;;11.90;99.90;;;;;;6244567;23;20182;-69
2022/10/20 10:36:31;;;;;;;2.67;2.47;;;11.90;99.90;;;;;;6243874;23;20172;-70
2022/10/20 10:38:58;;;;;;;3.53;3.28;;;11.90;99.90;;;;;;6243193;23;20165;-71
2022/10/20 10:41:41;;;;;;;1.52;1.52;;;12.00;99.90;;;;;;6241362;23;20220;-71
2022/10/20 10:44:15;;;;;;;2.15;2.05;;;12.00;99.90;;;;;;6244003;23;20168;-71
2022/10/20 10:46:46;;;;;;;1.88;1.30;;;12.00;99.90;;;;;;6244056;23;20163;-70
2022/10/20 10:49:33;;;;;;;2.50;2.30;;;12.00;99.90;;;;;;6243972;23;20498;-68
2022/10/20 10:52:09;;;;;;;0.93;0.73;;;12.10;99.90;;;;;;6241584;23;20319;-71
2022/10/20 10:54:54;;;;;;;1.85;1.40;;;12.10;99.90;;;;;;6242603;23;20169;-71
2022/10/20 10:57:30;;;;;;;1.33;1.33;;;12.20;99.90;;;;;;6240073;23;20185;-70
2022/10/20 11:00:01;;;;;;;1.27;1.23;;;12.40;99.90;;;;;;6242269;23;20167;-70
2022/10/20 11:02:56;;;;;;;0.88;0.88;;;12.40;99.90;;;;;;6242008;23;20549;-69
2022/10/20 11:05:51;;;;;;;1.50;1.50;;;12.40;99.90;;;;;;6243155;23;20171;-69
2022/10/20 11:08:31;;;;;;;1.50;1.45;;;12.50;99.90;;;;;;6241380;23;20169;-69
2022/10/20 11:11:07;;;;;;;1.25;1.25;;;12.60;99.90;;;;;;6240665;22;20294;-68
2022/10/20 11:13:42;;;;;;;1.85;1.75;;;12.70;99.90;;;;;;6242520;23;20613;-68
2022/10/20 11:16:27;;;;;;;1.90;1.80;;;12.70;99.90;;;;;;6241685;23;20628;-68
2022/10/20 11:19:11;;;;;;;2.40;2.30;;;12.70;99.90;;;;;;6242083;23;20163;-68
2022/10/20 11:21:50;;;;;;;1.92;1.88;;;12.70;99.90;;;;;;6212321;23;20179;-68
2022/10/20 11:24:39;;;;;;;3.80;2.42;;;12.70;99.90;;;;;;6212086;23;20204;-68
2022/10/20 11:27:11;;;;;;;4.22;2.45;;;12.80;99.90;;;;;;6209910;23;20180;-69
2022/10/20 11:29:42;;;;;;;3.45;2.03;;;12.80;99.90;;;;;;6212635;23;20692;-69
2022/10/20 11:32:17;;;;;;;2.63;2.42;;;12.80;99.90;;;;;;6212331;23;20710;-69
2022/10/20 11:34:52;;;;;;;2.47;2.35;;;12.90;99.90;;;;;;6211718;23;20593;-68
2022/10/20 11:37:24;;;;;;;0.95;0.95;;;12.90;99.90;;;;;;6210036;23;20270;-69
2022/10/20 11:39:57;;;;;;;2.50;2.40;;;12.90;99.90;;;;;;6211057;23;20199;-68
2022/10/20 11:42:29;;;;;;;1.93;1.93;;;12.90;99.90;;;;;;6211979;23;20171;-68
2022/10/20 11:45:01;;;;;;;1.07;1.07;;;13.00;99.90;;;;;;6212698;23;20772;-70
2022/10/20 11:47:33;;;;;;;3.10;2.90;;;13.10;99.90;;;;;;6211653;23;20411;-70
2022/10/20 11:49:59;;;;;;;2.20;2.03;;;13.20;99.90;;;;;;6211598;23;20503;-67
2022/10/20 11:52:59;;;;;;;2.10;1.90;;;13.30;99.90;;;;;;6213167;23;20505;-67
2022/10/20 11:55:45;;;;;;;1.53;1.53;;;13.40;99.90;;;;;;6194989;23;20683;-67
2022/10/20 11:58:35;;;;;;;2.75;2.65;;;13.30;99.90;;;;;;6211217;23;20438;-67
2022/10/20 12:01:23;;;;;;;1.80;1.70;;;13.30;99.90;;;;;;6211543;23;20317;-69
2022/10/20 12:04:09;;;;;;;1.37;1.27;;;13.30;99.90;;;;;;6211579;23;20852;-69
2022/10/20 12:07:04;;;;;;;2.50;1.77;;;13.30;99.90;;;;;;6220972;23;20427;-69
2022/10/20 12:09:55;;;;;;;2.38;2.28;;;13.30;99.90;;;;;;6195783;23;20211;-67
2022/10/20 12:12:30;;;;;;;1.98;1.92;;;13.40;99.90;;;;;;6211283;23;20699;-67
2022/10/20 12:15:01;;;;;;;2.00;1.90;;;13.40;99.90;;;;;;6211288;23;20163;-68
2022/10/20 12:17:33;;;;;;;1.20;1.20;;;13.50;99.90;;;;;;6211071;23;20450;-67
2022/10/20 12:20:49;;;;;;;1.13;1.13;;;13.60;99.90;;;;;;6213170;23;20443;-69
2022/10/20 12:23:53;;;;;;;1.80;1.70;;;13.70;99.90;;;;;;6120060;23;20402;-69
2022/10/20 12:26:59;;;;;;;2.03;1.90;;;13.60;99.90;;;;;;6209298;23;20488;-69
2022/10/20 12:29:49;;;;;;;1.73;1.63;;;13.50;99.90;;;;;;6211581;23;20793;-68
2022/10/20 12:32:38;;;;;;;2.30;2.10;;;13.50;99.90;;;;;;6212901;23;20423;-69
2022/10/20 12:35:34;;;;;;;2.83;1.80;;;13.50;99.90;;;;;;6211353;23;20420;-69
2022/10/20 12:38:03;;;;;;;0.63;0.63;;;13.60;99.90;;;;;;6211113;23;20767;-69
2022/10/20 12:40:33;;;;;;;1.93;1.20;;;13.60;99.90;;;;;;6211419;23;20455;-69
2022/10/20 12:43:00;;;;;;;1.90;1.80;;;13.60;99.90;;;;;;6211393;23;20414;-68
2022/10/20 12:45:37;;;;;;;1.83;1.70;;;13.60;99.90;;;;;;6211622;23;20488;-68
2022/10/20 12:48:07;;;;;;;1.73;1.73;;;13.70;99.90;;;;;;6211715;23;20404;-69
2022/10/20 12:50:36;;;;;;;1.67;1.57;;;13.70;99.90;;;;;;6211047;23;20446;-68
2022/10/20 12:53:13;;;;;;;0.53;0.53;;;13.70;99.90;;;;;;6210767;23;20427;-69
2022/10/20 12:55:40;;;;;;;2.10;1.33;;;13.80;99.90;;;;;;6210646;23;20413;-69
2022/10/20 12:58:12;;;;;;;1.73;1.57;;;13.80;99.90;;;;;;6211062;23;20447;-69
2022/10/20 13:01:01;;;;;;;2.10;1.90;;;13.80;99.90;;;;;;6211030;23;20447;-67
2022/10/20 13:03:45;;;;;;;2.40;1.13;;;13.90;99.90;;;;;;6210697;23;20907;-70
2022/10/20 13:06:41;;;;;;;1.37;1.37;;;13.90;99.90;;;;;;6211181;23;20734;-68
2022/10/20 13:09:20;;;;;;;1.87;1.77;;;13.90;99.90;;;;;;6210828;23;20411;-69
2022/10/20 13:11:58;;;;;;;1.57;1.47;;;13.90;99.90;;;;;;6212582;23;20806;-68
2022/10/20 13:14:55;;;;;;;0.60;0.60;;;13.90;99.90;;;;;;6223497;23;20749;-68
2022/10/20 13:17:31;;;;;;;1.37;1.27;;;13.90;99.90;;;;;;6212600;23;20450;-68
2022/10/20 13:20:02;;;;;;;1.20;1.20;;;13.90;99.90;;;;;;6213233;23;20765;-68
2022/10/20 13:22:41;;;;;;;1.85;1.45;;;13.90;99.90;;;;;;6212671;23;20413;-67
2022/10/20 13:25:18;;;;;;;1.97;1.40;;;13.90;99.90;;;;;;6212563;23;20316;-68
2022/10/20 13:27:45;;;;;;;1.50;1.50;;;13.90;99.90;;;;;;6212638;23;20418;-68
2022/10/20 13:30:20;;;;;;;0.80;0.80;;;13.80;99.90;;;;;;6212450;23;20444;-68
2022/10/20 13:32:56;;;;;;;0.70;0.70;;;13.80;99.90;;;;;;6212490;23;20429;-67
2022/10/20 13:35:29;;;;;;;4.93;1.10;;;13.80;99.90;;;;;;6212273;23;20411;-69
2022/10/20 13:38:00;;;;;;;1.10;1.10;;;13.80;99.90;;;;;;6211136;23;20438;-69
2022/10/20 13:40:42;;;;;;;1.50;1.20;;;13.80;99.90;;;;;;6211860;23;21046;-68
2022/10/20 13:43:23;;;;;;;1.10;1.10;;;13.80;99.90;;;;;;6211261;23;21017;-69
2022/10/20 13:46:17;;;;;;;1.43;1.33;;;13.80;99.90;;;;;;6211474;23;20869;-68
2022/10/20 13:49:08;;;;;;;1.80;1.70;;;13.90;99.90;;;;;;6195092;23;20413;-68
2022/10/20 13:51:42;;;;;;;0.87;0.87;;;13.90;99.90;;;;;;6212329;23;20414;-69
2022/10/20 13:54:19;;;;;;;1.00;1.00;;;13.90;99.90;;;;;;6212592;23;20406;-69
2022/10/20 13:56:47;;;;;;;1.43;1.43;;;13.90;99.90;;;;;;6211859;23;20411;-69
2022/10/20 13:59:21;;;;;;;1.90;1.90;;;13.90;99.90;;;;;;6212723;23;20446;-69
2022/10/20 14:01:51;;;;;;;1.70;1.20;;;13.80;99.90;;;;;;6212437;23;20408;-69
2022/10/20 14:04:24;;;;;;;1.77;1.67;;;13.80;99.90;;;;;;6211962;23;20429;-69
2022/10/20 14:06:53;;;;;;;2.70;2.00;;;13.80;99.90;;;;;;6211077;23;20415;-69
2022/10/20 14:09:22;;;;;;;1.50;1.50;;;13.80;99.90;;;;;;6221885;23;20518;-69
2022/10/20 14:11:52;;;;;;;2.63;1.43;;;13.80;99.90;;;;;;6212026;23;20493;-68
2022/10/20 14:14:22;;;;;;;4.13;2.10;;;13.70;99.90;;;;;;6212062;23;20879;-69
2022/10/20 14:16:53;;;;;;;2.17;2.07;;;13.60;99.90;;;;;;6211869;23;20418;-68
2022/10/20 14:19:22;;;;;;;0.83;0.73;;;13.60;99.90;;;;;;6212262;23;20529;-69
2022/10/20 14:21:50;;;;;;;2.87;2.73;;;13.50;99.90;;;;;;6211550;23;20495;-69
2022/10/20 14:24:24;;;;;;;1.30;1.20;;;13.40;99.90;;;;;;6212300;23;20748;-69
2022/10/20 14:26:51;;;;;;;3.50;2.67;;;13.40;99.90;;;;;;6211312;23;20852;-69
2022/10/20 14:29:20;;;;;;;2.00;1.90;;;13.30;99.90;;;;;;6221859;23;20766;-69
2022/10/20 14:31:48;;;;;;;1.60;1.55;;;13.30;99.90;;;;;;6212013;23;20179;-69
2022/10/20 14:34:19;;;;;;;1.25;1.15;;;13.30;99.90;;;;;;6213148;23;20206;-69
2022/10/20 14:36:47;;;;;;;2.17;2.07;;;13.20;99.90;;;;;;6212021;23;20683;-69
2022/10/20 14:39:31;;;;;;;1.70;1.70;;;13.10;99.90;;;;;;6212107;23;20451;-69
2022/10/20 14:42:00;;;;;;;2.33;2.17;;;13.10;99.90;;;;;;6211769;23;20879;-69
2022/10/20 14:44:28;;;;;;;1.83;1.83;;;13.00;99.90;;;;;;6212759;23;20186;-69
2022/10/20 14:46:57;;;;;;;2.30;2.20;;;13.00;99.90;;;;;;6211649;23;20432;-69
2022/10/20 14:49:27;;;;;;;3.60;2.93;;;12.90;99.90;;;;;;6212307;23;20423;-68
2022/10/20 14:51:57;;;;;;;1.93;1.83;;;12.90;99.90;;;;;;6212297;23;20429;-69
2022/10/20 14:54:32;;;;;;;2.60;2.40;;;12.80;99.90;;;;;;6222237;23;20752;-69
2022/10/20 14:57:00;;;;;;;3.00;2.20;;;12.80;99.90;;;;;;6211607;23;20248;-69
2022/10/20 14:59:28;;;;;;;2.53;1.23;;;12.70;99.90;;;;;;6212192;23;20468;-69
2022/10/20 15:02:07;;;;;;;3.53;3.25;;;12.70;99.90;;;;;;6212289;23;20423;-68
2022/10/20 15:04:34;;;;;;;2.38;2.25;;;12.60;99.90;;;;;;6211986;23;20168;-68
2022/10/20 15:07:06;;;;;;;3.30;3.00;;;12.60;99.90;;;;;;6210384;23;20185;-70
2022/10/20 15:09:40;;;;;;;2.72;2.53;;;12.50;99.90;;;;;;6213032;23;20227;-70
2022/10/20 15:12:13;;;;;;;1.35;1.25;;;12.50;99.90;;;;;;6214997;23;20230;-68
2022/10/20 15:14:41;;;;;;;2.75;2.65;;;12.50;99.90;;;;;;6214708;23;20170;-68
2022/10/20 15:17:36;;;;;;;3.53;1.77;;;12.40;99.90;;;;;;6211860;23;20188;-68
2022/10/20 15:20:36;;;;;;;1.75;1.75;;;12.40;99.90;;;;;;6211566;23;20362;-69
2022/10/20 15:23:05;;;;;;;3.95;1.67;;;12.30;99.90;;;;;;6193876;23;20184;-69
2022/10/20 15:25:41;;;;;;;1.25;1.25;;;12.30;99.90;;;;;;6210409;23;20187;-69
2022/10/20 15:28:24;;;;;;;2.30;2.17;;;12.30;99.90;;;;;;6211253;23;20193;-69
2022/10/20 15:30:51;;;;;;;3.63;2.38;;;12.20;99.90;;;;;;6211382;23;20264;-68
2022/10/20 15:33:18;;;;;;;1.60;1.50;;;12.20;99.90;;;;;;6209973;23;20183;-69
2022/10/20 15:35:46;;;;;;;0.85;0.85;;;12.10;99.90;;;;;;6210467;23;20259;-69
2022/10/20 15:38:13;;;;;;;1.50;1.50;;;12.10;99.90;;;;;;6208441;23;20199;-69
2022/10/20 15:40:41;;;;;;;2.28;2.17;;;12.10;99.90;;;;;;6211014;23;20206;-68
2022/10/20 15:43:11;;;;;;;1.85;1.65;;;12.10;99.90;;;;;;6210962;23;20188;-68
2022/10/20 15:45:41;;;;;;;2.35;2.22;;;12.10;99.90;;;;;;6210651;23;20185;-70
2022/10/20 15:48:07;;;;;;;3.20;3.00;;;12.00;99.90;;;;;;6210828;23;20642;-68
2022/10/20 15:50:34;;;;;;;1.98;1.88;;;12.00;99.90;;;;;;6211197;23;20214;-69
2022/10/20 15:53:01;;;;;;;2.05;1.95;;;11.90;99.90;;;;;;6210637;23;20186;-69
2022/10/20 15:55:31;;;;;;;2.53;2.33;;;12.00;99.90;;;;;;6210162;23;20185;-68
2022/10/20 15:57:59;;;;;;;1.80;1.70;;;11.90;99.90;;;;;;6210626;23;20246;-69
2022/10/20 16:00:28;;;;;;;3.17;1.73;;;11.90;99.90;;;;;;6210479;23;20204;-68
2022/10/20 16:02:55;;;;;;;2.75;2.65;;;11.90;99.90;;;;;;6210518;23;20185;-68
2022/10/20 16:05:23;;;;;;;3.90;2.78;;;11.90;99.90;;;;;;6210999;23;20188;-69
2022/10/20 16:07:53;;;;;;;3.75;2.00;;;11.80;99.90;;;;;;6211522;23;20189;-69
2022/10/20 16:10:21;;;;;;;1.65;1.48;;;11.80;99.90;;;;;;6211550;23;20284;-68
2022/10/20 16:12:48;;;;;;;2.17;2.10;;;11.80;99.90;;;;;;6212371;23;20188;-69
2022/10/20 16:15:17;;;;;;;2.00;1.90;;;11.80;99.90;;;;;;6211617;23;20664;-69
2022/10/20 16:17:45;;;;;;;1.90;1.80;;;11.80;99.90;;;;;;6211637;23;20229;-69
2022/10/20 16:20:13;;;;;;;3.15;2.65;;;11.80;99.90;;;;;;6211912;23;20207;-68
2022/10/20 16:22:39;;;;;;;1.20;1.20;;;11.80;99.90;;;;;;6211008;23;20223;-70
2022/10/20 16:25:07;;;;;;;2.05;1.95;;;11.80;99.90;;;;;;6210912;23;20598;-70
2022/10/20 16:27:33;;;;;;;1.75;1.65;;;11.80;99.90;;;;;;6210563;23;20487;-69
2022/10/20 16:30:02;;;;;;;2.53;2.42;;;11.80;99.90;;;;;;6211204;23;20202;-70
2022/10/20 16:32:30;;;;;;;2.25;2.15;;;11.80;99.90;;;;;;6210817;23;20200;-69
2022/10/20 16:34:57;;;;;;;1.20;1.20;;;11.80;99.90;;;;;;6220778;23;20277;-67
2022/10/20 16:37:24;;;;;;;6.40;2.78;;;11.80;99.90;;;;;;6210975;23;20185;-67
2022/10/20 16:39:51;;;;;;;3.38;2.30;;;11.80;99.90;;;;;;6210884;23;20211;-68
2022/10/20 16:42:18;;;;;;;1.95;1.90;;;11.70;99.90;;;;;;6211515;23;20187;-70
2022/10/20 16:44:46;;;;;;;2.72;2.53;;;11.70;99.90;;;;;;6211241;23;20185;-69
2022/10/20 16:47:12;;;;;;;2.90;2.80;;;11.70;99.90;;;;;;6211110;23;20278;-69
2022/10/20 16:49:40;;;;;;;2.03;1.80;;;11.80;99.90;;;;;;6211884;23;20199;-68
2022/10/20 16:52:07;;;;;;;1.95;1.90;;;11.70;99.90;;;;;;6211343;23;20183;-67
2022/10/20 16:54:34;;;;;;;1.83;1.70;;;11.70;99.90;;;;;;6210263;23;20190;-68
2022/10/20 16:57:01;;;;;;;2.80;2.58;;;11.70;99.90;;;;;;6209836;23;20203;-68
2022/10/20 16:59:28;;;;;;;2.15;1.95;;;11.70;99.90;;;;;;6210907;23;20545;-68
2022/10/20 17:01:55;;;;;;;2.08;1.98;;;11.70;99.90;;;;;;6210909;23;20530;-68
2022/10/20 17:04:22;;;;;;;3.35;1.85;;;11.70;99.90;;;;;;6210135;23;20198;-68
2022/10/20 17:06:51;;;;;;;2.42;2.33;;;11.70;99.90;;;;;;6208904;23;20183;-68
2022/10/20 17:09:17;;;;;;;2.08;1.98;;;11.80;99.90;;;;;;6210737;23;20208;-68
2022/10/20 17:11:44;;;;;;;2.45;2.30;;;11.70;99.90;;;;;;6209843;23;20168;-68
2022/10/20 17:14:11;;;;;;;4.55;2.60;;;11.70;99.90;;;;;;6210757;23;20187;-69